Time;durP1;ratioP1;P1;durP2;ratioP2;P2;SDS_P1;SDS_P2;PMS_P1;PMS_P2;Temp;Humidity;BMP_temperature;BMP_pressure;BME280_temperature;BME280_humidity;BME280_pressure;Samples;Min_cycle;Max_cycle;Signal;HPM_P1;HPM_P2
2023/10/21 00:20:14;;;;;;;4.78;2.63;;;;;;;5.03;100.00;98918.44;6059060;23;20010;-80
2023/10/21 01:23:48;;;;;;;14.05;6.00;;;;;;;5.26;100.00;98974.50;6122973;23;20022;-79
2023/10/21 02:16:24;;;;;;;14.05;6.90;;;;;;;5.46;100.00;99006.19;6075685;23;20033;-82
2023/10/21 02:24:51;;;;;;;20.27;7.22;;;;;;;5.49;100.00;99010.97;6108798;23;20021;-79
2023/10/21 02:56:43;;;;;;;18.13;8.27;;;;;;;5.68;100.00;99045.59;6074645;23;21411;31
2023/10/21 02:59:13;;;;;;;21.77;8.07;;;;;;;5.66;100.00;99037.91;6085039;23;20036;-80
2023/10/21 03:02:06;;;;;;;24.93;8.40;;;;;;;5.68;100.00;99035.75;6017740;23;20030;31
2023/10/21 03:10:12;;;;;;;38.42;9.73;;;;;;;5.68;100.00;99048.25;6111173;23;20014;-80
2023/10/21 03:12:38;;;;;;;33.83;8.35;;;;;;;5.65;100.00;99030.22;6131380;23;20031;-79
2023/10/21 03:15:06;;;;;;;25.45;9.30;;;;;;;5.69;100.00;99025.91;6101816;23;20022;-82
2023/10/21 03:17:37;;;;;;;32.28;10.05;;;;;;;5.71;100.00;99021.94;6141087;23;20029;-82
2023/10/21 03:20:04;;;;;;;32.25;8.75;;;;;;;5.70;100.00;99020.34;6144134;23;20022;-81
2023/10/21 03:22:30;;;;;;;30.73;8.77;;;;;;;5.70;100.00;99028.31;6090539;23;20021;-80
2023/10/21 03:24:56;;;;;;;24.92;8.80;;;;;;;5.68;100.00;99019.81;6094733;23;20014;-79
2023/10/21 03:27:25;;;;;;;24.80;9.07;;;;;;;5.75;100.00;99030.91;6118395;23;20009;-80
2023/10/21 03:29:51;;;;;;;27.50;8.85;;;;;;;5.74;100.00;99031.19;6100274;23;20009;-81
2023/10/21 03:32:17;;;;;;;25.17;8.10;;;;;;;5.78;100.00;99040.19;6121909;23;20025;-82
2023/10/21 03:34:45;;;;;;;33.15;9.73;;;;;;;5.80;100.00;99032.72;6122442;23;20013;-82
2023/10/21 03:37:11;;;;;;;39.90;9.43;;;;;;;5.75;100.00;99025.59;6099648;23;20051;-80
2023/10/21 03:39:41;;;;;;;37.17;9.57;;;;;;;5.76;100.00;99026.41;6133765;23;20062;-81
2023/10/21 03:42:09;;;;;;;37.88;10.02;;;;;;;5.79;100.00;99035.69;6148691;23;20002;-81
2023/10/21 03:44:36;;;;;;;31.40;9.23;;;;;;;5.81;100.00;99033.53;6122635;23;20040;-79
2023/10/21 03:47:02;;;;;;;28.55;9.25;;;;;;;5.80;100.00;99031.94;6122331;23;20030;-79
2023/10/21 03:49:30;;;;;;;39.13;9.82;;;;;;;5.82;100.00;99038.56;6075661;23;20050;-80
2023/10/21 03:51:56;;;;;;;26.33;8.50;;;;;;;5.82;100.00;99035.09;6106896;23;20033;-80
2023/10/21 03:54:22;;;;;;;38.03;9.57;;;;;;;5.83;100.00;99036.72;6082865;23;20038;-80
2023/10/21 03:56:51;;;;;;;42.15;9.65;;;;;;;5.84;100.00;99038.28;6085346;23;20101;-80
2023/10/21 03:59:18;;;;;;;43.83;9.70;;;;;;;5.84;100.00;99044.41;6111334;23;20026;-79
2023/10/21 04:01:44;;;;;;;30.85;9.30;;;;;;;5.89;100.00;99043.53;6081039;23;20015;-80
2023/10/21 04:04:10;;;;;;;31.52;9.93;;;;;;;5.89;100.00;99041.69;6081377;23;20124;-81
2023/10/21 04:06:37;;;;;;;;;;;;;;;5.94;100.00;99064.78;6085904;23;20042;-81
2023/10/21 04:09:03;;;;;;;29.90;8.98;;;;;;;5.89;100.00;99068.28;6063063;23;19920;-80
2023/10/21 04:11:30;;;;;;;23.58;7.90;;;;;;;5.92;100.00;99057.09;6087016;23;20006;-80
2023/10/21 04:13:56;;;;;;;;;;;;;;;5.95;100.00;99066.38;6091995;23;20069;-80
2023/10/21 04:16:22;;;;;;;43.63;10.05;;;;;;;5.92;100.00;99069.59;6087532;23;19944;-80
2023/10/21 04:18:48;;;;;;;26.88;8.80;;;;;;;5.90;100.00;99063.75;6087993;23;20018;-80
2023/10/21 04:21:14;;;;;;;;;;;;;;;5.97;100.00;99074.88;6109016;23;20018;-80
2023/10/21 04:23:40;;;;;;;24.35;8.95;;;;;;;5.93;100.00;99071.97;6108684;23;19995;-82
2023/10/21 04:26:08;;;;;;;35.00;10.32;;;;;;;5.93;100.00;99076.50;6116435;23;19998;-79
2023/10/21 04:28:34;;;;;;;26.60;9.63;;;;;;;5.95;100.00;99071.69;6116930;23;20026;-79
2023/10/21 04:31:01;;;;;;;30.40;8.98;;;;;;;5.95;100.00;99066.38;6096920;23;20022;-81
2023/10/21 04:33:27;;;;;;;35.53;9.95;;;;;;;5.97;100.00;99073.00;6094961;23;19998;-80
2023/10/21 04:35:58;;;;;;;28.52;9.30;;;;;;;5.96;100.00;99065.28;6073587;23;20005;-80
2023/10/21 04:38:28;;;;;;;27.27;8.15;;;;;;;5.98;100.00;99061.31;6096630;23;20341;-81
2023/10/21 04:40:55;;;;;;;24.52;8.40;;;;;;;6.00;100.00;99061.00;6116970;23;20003;-81
2023/10/21 04:46:11;;;;;;;37.30;9.18;;;;;;;6.04;100.00;99080.66;6063335;23;20018;-79
2023/10/21 04:48:37;;;;;;;29.88;9.73;;;;;;;6.04;100.00;99088.63;6131611;23;20017;-82
2023/10/21 04:51:03;;;;;;;36.60;9.52;;;;;;;6.07;100.00;99096.03;6156036;23;20006;-82
2023/10/21 04:53:30;;;;;;;28.20;8.80;;;;;;;6.10;100.00;99086.72;6151357;23;20013;-82
2023/10/21 04:55:56;;;;;;;38.65;9.48;;;;;;;6.09;100.00;99099.19;6105010;23;19997;-82
2023/10/21 04:58:22;;;;;;;;;;;;;;;6.12;100.00;99092.53;6128733;23;20014;-82
2023/10/21 05:03:37;;;;;;;22.35;8.73;;;;;;;6.06;100.00;99083.81;6153955;23;20017;-81
2023/10/21 05:08:59;;;;;;;28.58;9.65;;;;;;;6.14;100.00;99104.47;6167082;23;20021;-80
2023/10/21 05:14:31;;;;;;;26.10;8.30;;;;;;;6.10;100.00;99106.13;6081941;23;20060;-81
2023/10/21 05:17:08;;;;;;;33.85;8.85;;;;;;;6.12;100.00;99103.97;6154490;23;20065;-81
2023/10/21 05:19:37;;;;;;;30.05;9.20;;;;;;;6.15;100.00;99108.69;6104504;23;20018;-81
2023/10/21 05:33:57;;;;;;;49.25;9.73;;;;;;;6.19;100.00;99125.69;6113079;23;20022;-81
2023/10/21 05:44:35;;;;;;;36.65;10.20;;;;;;;6.23;100.00;99153.31;6032004;23;20006;-82
2023/10/21 05:47:01;;;;;;;40.78;9.55;;;;;;;6.20;100.00;99153.06;6123229;23;20010;-80
2023/10/21 05:52:17;;;;;;;32.20;9.35;;;;;;;6.18;100.00;99156.00;6124561;23;20013;-82
2023/10/21 06:00:36;;;;;;;24.75;8.20;;;;;;;6.28;100.00;99163.88;6142872;23;20013;-82
2023/10/21 06:03:06;;;;;;;36.30;8.55;;;;;;;6.26;100.00;99152.75;6062095;23;20022;-82
2023/10/21 06:08:34;;;;;;;23.17;9.52;;;;;;;6.33;100.00;99160.41;6023894;23;20103;-82
2023/10/21 06:51:16;;;;;;;18.15;8.05;;;;;;;6.55;100.00;99239.72;6067112;23;20002;-81
2023/10/21 07:44:13;;;;;;;16.85;6.45;;;;;;;6.80;100.00;99290.03;6056046;23;20031;-81
2023/10/21 07:46:40;;;;;;;14.15;7.30;;;;;;;6.89;100.00;99313.38;6080296;23;20018;-82
2023/10/21 07:49:06;;;;;;;14.98;6.95;;;;;;;6.88;100.00;99307.28;6058685;23;20034;-81
2023/10/21 07:51:33;;;;;;;16.00;6.57;;;;;;;6.89;100.00;99318.72;6059364;23;20485;-81
2023/10/21 07:53:58;;;;;;;12.68;7.03;;;;;;;6.90;100.00;99314.97;6105407;23;20018;-82
2023/10/21 07:56:24;;;;;;;12.35;5.65;;;;;;;6.91;100.00;99305.91;6106068;23;20042;-79
2023/10/21 07:58:49;;;;;;;11.20;6.65;;;;;;;6.96;100.00;99319.16;6137430;23;20045;-79
2023/10/21 08:01:16;;;;;;;10.32;5.85;;;;;;;6.96;100.00;99319.97;6082255;23;20018;-80
2023/10/21 08:03:44;;;;;;;12.35;6.78;;;;;;;7.00;100.00;99328.19;6081773;23;20018;-80
2023/10/21 08:06:10;;;;;;;9.18;4.72;;;;;;;7.00;100.00;99328.19;6091215;23;20006;-81
2023/10/21 08:08:36;;;;;;;10.88;5.65;;;;;;;7.03;100.00;99332.94;6061112;23;20471;-77
2023/10/21 08:11:03;;;;;;;9.48;5.40;;;;;;;7.08;100.00;99332.91;6121796;23;20018;-78
2023/10/21 08:13:29;;;;;;;9.77;5.70;;;;;;;7.06;100.00;99335.84;6050132;23;20021;-79
2023/10/21 08:15:57;;;;;;;8.63;4.90;;;;;;;7.13;100.00;99342.72;6100759;23;20081;-80
2023/10/21 08:18:23;;;;;;;10.13;6.10;;;;;;;7.13;100.00;99345.38;6052421;23;20088;-78
2023/10/21 08:20:49;;;;;;;9.43;5.35;;;;;;;7.14;100.00;99344.31;6106962;23;20025;-77
2023/10/21 08:23:15;;;;;;;12.13;6.03;;;;;;;7.16;100.00;99347.47;6086336;23;20045;-78
2023/10/21 08:25:41;;;;;;;;;;;;;;;7.15;100.00;99352.00;6083459;23;20014;-78
2023/10/21 08:28:08;;;;;;;11.68;5.55;;;;;;;7.17;100.00;99347.19;6107403;23;19912;-79
2023/10/21 08:30:36;;;;;;;8.45;5.15;;;;;;;7.19;100.00;99350.38;6118311;23;20037;-78
2023/10/21 08:33:05;;;;;;;10.02;5.60;;;;;;;7.19;100.00;99350.38;6090517;23;20014;-79
2023/10/21 08:35:31;;;;;;;11.80;5.68;;;;;;;7.20;100.00;99349.31;6088726;23;20073;-79
2023/10/21 08:37:58;;;;;;;10.25;6.30;;;;;;;7.24;100.00;99352.19;6096596;23;20017;-79
2023/10/21 08:40:25;;;;;;;10.52;6.18;;;;;;;7.25;100.00;99351.94;6098576;23;20020;-79
2023/10/21 08:42:51;;;;;;;10.52;5.55;;;;;;;7.28;100.00;99347.91;6123183;23;20022;-79
2023/10/21 08:45:20;;;;;;;10.15;5.57;;;;;;;7.32;100.00;99359.59;6119505;23;20013;-81
2023/10/21 08:47:48;;;;;;;10.35;5.60;;;;;;;7.34;100.00;99360.09;6149226;23;20033;-79
2023/10/21 08:50:16;;;;;;;8.95;5.18;;;;;;;7.38;100.00;99364.59;6152843;23;20013;-79
2023/10/21 08:52:41;;;;;;;10.38;5.70;;;;;;;7.37;100.00;99362.19;6126517;23;20013;-79
2023/10/21 08:55:09;;;;;;;10.13;5.78;;;;;;;7.47;100.00;99375.41;6145486;23;20073;-80
2023/10/21 08:57:36;;;;;;;9.07;5.65;;;;;;;7.52;100.00;99385.19;6143058;23;20020;-80
2023/10/21 09:00:05;;;;;;;10.10;6.13;;;;;;;7.47;100.00;99382.59;6115993;23;20083;-79
2023/10/21 09:02:32;;;;;;;8.82;5.38;;;;;;;7.50;100.00;99382.81;6114003;23;20073;-80
2023/10/21 09:04:59;;;;;;;8.70;4.95;;;;;;;7.55;100.00;99389.97;6123849;23;20073;-80
2023/10/21 09:07:44;;;;;;;9.55;4.93;;;;;;;7.58;100.00;99400.06;6149314;23;20009;-81
2023/10/21 09:10:12;;;;;;;8.35;5.05;;;;;;;7.57;100.00;99398.47;6117102;23;20014;-81
2023/10/21 09:12:38;;;;;;;6.85;4.45;;;;;;;7.59;100.00;99407.00;6119046;23;20014;-80
2023/10/21 09:15:05;;;;;;;7.82;4.75;;;;;;;7.54;100.00;99413.16;6120413;23;20009;-81
2023/10/21 09:17:36;;;;;;;11.45;4.97;;;;;;;7.55;100.00;99416.63;6147340;23;20020;-78
2023/10/21 09:20:21;;;;;;;8.07;5.35;;;;;;;7.60;100.00;99424.56;6115909;23;20436;-78
2023/10/21 09:22:52;;;;;;;8.68;5.07;;;;;;;7.55;100.00;99416.63;6084837;23;20024;-80
2023/10/21 09:25:20;;;;;;;10.13;5.90;;;;;;;7.55;100.00;99411.28;6094219;23;20017;-78
2023/10/21 09:27:55;;;;;;;7.75;5.15;;;;;;;7.60;100.00;99424.56;6107581;23;20020;-80
2023/10/21 09:30:27;;;;;;;7.97;4.82;;;;;;;7.60;100.00;99436.03;6088037;23;20005;-78
2023/10/21 09:59:12;;;;;;;11.90;7.25;;;;;;;7.72;100.00;99464.13;6049635;23;20872;-80
2023/10/21 10:10:27;;;;;;;12.45;6.82;;;;;;;7.67;100.00;99467.66;6065554;23;20022;-81
2023/10/21 13:02:09;;;;;;;13.55;8.25;;;;;;;9.88;100.00;99676.41;6128909;23;20069;-80
2023/10/21 13:16:20;;;;;;;15.02;8.63;;;;;;;9.90;100.00;99701.00;6058043;23;20023;-81
2023/10/21 13:29:47;;;;;;;10.68;7.38;;;;;;;10.02;100.00;99722.72;6064785;23;20018;-80
2023/10/21 13:32:16;;;;;;;10.30;7.22;;;;;;;10.01;100.00;99723.81;6059983;23;20003;-79
2023/10/21 13:34:43;;;;;;;13.07;7.90;;;;;;;10.08;100.00;99726.91;6088993;23;20064;-81
2023/10/21 13:37:09;;;;;;;;;;;;;;;10.17;100.00;99726.28;6086694;23;20075;-81
2023/10/21 13:39:35;;;;;;;11.18;7.45;;;;;;;10.15;100.00;99715.06;6111772;23;19901;-81
2023/10/21 13:42:03;;;;;;;13.20;7.90;;;;;;;10.20;100.00;99720.34;6040962;23;20007;-80
2023/10/21 13:44:34;;;;;;;16.10;9.52;;;;;;;10.28;100.00;99717.03;6076505;23;20023;-80
2023/10/21 13:47:00;;;;;;;11.63;7.97;;;;;;;10.28;100.00;99717.03;6133534;23;20022;-80
2023/10/21 13:49:26;;;;;;;12.30;8.75;;;;;;;10.30;100.00;99717.53;6133972;23;20013;-80
2023/10/21 13:51:52;;;;;;;13.00;8.27;;;;;;;10.32;100.00;99723.38;6156797;23;20033;-80
2023/10/21 13:54:19;;;;;;;13.45;9.27;;;;;;;10.30;100.00;99714.88;6180903;23;19997;-81
2023/10/21 13:56:44;;;;;;;13.52;9.35;;;;;;;10.37;100.00;99726.00;6131797;23;20064;-80
2023/10/21 13:59:13;;;;;;;15.73;8.35;;;;;;;10.39;100.00;99718.47;6157496;23;20008;-82
2023/10/21 14:01:41;;;;;;;12.82;8.55;;;;;;;10.41;100.00;99740.34;6156575;23;20008;-80
2023/10/21 14:04:09;;;;;;;14.60;9.10;;;;;;;10.43;100.00;99721.31;6153866;23;19997;-79
2023/10/21 14:06:36;;;;;;;15.55;9.52;;;;;;;10.47;100.00;99725.00;6129951;23;20024;-80
2023/10/21 14:09:15;;;;;;;12.20;8.63;;;;;;;10.51;100.00;99732.19;6156634;23;20006;-80
2023/10/21 14:11:42;;;;;;;14.82;9.57;;;;;;;10.57;100.00;99738.25;6139367;23;20580;-80
2023/10/21 14:14:10;;;;;;;12.00;8.55;;;;;;;10.58;100.00;99739.84;6102604;23;20030;-84
2023/10/21 14:16:36;;;;;;;14.50;9.27;;;;;;;10.65;100.00;99740.25;6078699;23;20026;-81
2023/10/21 14:19:03;;;;;;;14.30;8.98;;;;;;;10.71;100.00;99751.66;6089353;23;20024;-79
2023/10/21 14:21:28;;;;;;;14.07;8.57;;;;;;;10.74;100.00;99743.03;6054038;23;20018;-82
2023/10/21 14:23:55;;;;;;;13.77;9.05;;;;;;;10.80;100.00;99749.88;6077401;23;20020;-80
2023/10/21 14:26:20;;;;;;;13.23;8.95;;;;;;;10.89;100.00;99750.78;6052090;23;20021;-82
2023/10/21 14:28:47;;;;;;;13.45;8.88;;;;;;;10.99;100.00;99755.97;6094583;23;20010;-82
2023/10/21 14:31:14;;;;;;;16.08;8.68;;;;;;;11.05;100.00;99746.75;6092197;23;20040;-82
2023/10/21 14:33:40;;;;;;;12.73;8.98;;;;;;;11.07;100.00;99755.28;6093946;23;20025;-82
2023/10/21 14:36:06;;;;;;;14.35;9.40;;;;;;;11.16;100.00;99761.53;6118470;23;20018;-80
2023/10/21 14:38:32;;;;;;;14.75;9.02;;;;;;;11.16;100.00;99761.53;6068845;23;20101;-81
2023/10/21 14:40:58;;;;;;;12.32;8.23;;;;;;;11.18;100.00;99771.97;6071212;23;20037;-80
2023/10/21 14:43:24;;;;;;;11.48;8.25;;;;;;;11.18;100.00;99769.31;6071386;23;20468;-81
2023/10/21 14:45:49;;;;;;;10.25;7.20;;;;;;;11.18;100.00;99769.31;6071205;23;20010;-82
2023/10/21 14:48:18;;;;;;;13.10;8.60;;;;;;;11.17;100.00;99770.38;6093635;23;20006;-84
2023/10/21 14:50:46;;;;;;;11.57;7.82;;;;;;;11.16;100.00;99771.47;6068872;23;20010;-84
2023/10/21 14:53:12;;;;;;;13.68;9.10;;;;;;;11.18;100.00;99775.44;6093555;23;20522;-84
2023/10/21 14:55:39;;;;;;;;;;;;;;;11.18;100.00;99775.44;6047086;23;20104;-81
2023/10/21 14:58:07;;;;;;;11.45;7.40;;;;;;;11.14;100.00;99787.06;6046821;23;19919;-83
2023/10/21 15:00:34;;;;;;;10.63;7.30;;;;;;;11.16;100.00;99796.38;6046304;23;20022;-83
2023/10/21 15:03:02;;;;;;;12.10;8.27;;;;;;;11.16;100.00;99791.00;6046775;23;20092;-82
2023/10/21 15:05:30;;;;;;;11.57;7.78;;;;;;;11.19;100.00;99798.47;6093375;23;20460;-82
2023/10/21 15:07:57;;;;;;;10.75;7.35;;;;;;;11.17;100.00;99800.63;6070238;23;20272;-81
2023/10/21 15:10:29;;;;;;;10.50;8.32;;;;;;;11.18;100.00;99807.59;6038057;23;20053;-77
2023/10/21 15:12:58;;;;;;;12.52;8.07;;;;;;;11.15;100.00;99796.69;6002751;23;20155;-80
2023/10/21 15:15:23;;;;;;;11.10;7.72;;;;;;;11.14;100.00;99808.50;5957350;23;20015;-78
2023/10/21 15:17:50;;;;;;;13.02;7.88;;;;;;;11.13;100.00;99813.06;5981670;23;20023;-77
2023/10/21 15:20:17;;;;;;;13.60;8.82;;;;;;;11.21;100.00;99823.09;5981298;23;20062;-78
2023/10/21 15:22:45;;;;;;;13.73;9.20;;;;;;;11.32;100.00;99817.56;6009165;23;20025;-78
2023/10/21 15:25:19;;;;;;;12.75;9.35;;;;;;;11.40;100.00;99819.53;6009876;23;20776;-77
2023/10/21 15:27:46;;;;;;;13.98;9.32;;;;;;;11.44;100.00;99831.25;6034752;23;20007;-77
2023/10/21 15:30:14;;;;;;;14.00;9.50;;;;;;;11.54;100.00;99827.59;5986538;23;20018;-78
2023/10/21 15:32:40;;;;;;;14.70;8.93;;;;;;;11.59;100.00;99833.66;5985389;23;20038;-79
2023/10/21 15:35:06;;;;;;;13.57;9.13;;;;;;;11.66;100.00;99831.38;5985462;23;20023;-76
2023/10/21 15:37:32;;;;;;;12.77;9.30;;;;;;;11.66;100.00;99833.25;6009397;23;20057;-77
2023/10/21 15:40:00;;;;;;;12.35;8.45;;;;;;;11.69;100.00;99844.16;6033988;23;20091;-77
2023/10/21 15:42:27;;;;;;;12.43;9.48;;;;;;;11.71;100.00;99850.00;5985896;23;20457;-79
2023/10/21 15:44:52;;;;;;;11.98;7.45;;;;;;;11.72;100.00;99848.16;5987053;23;20061;-78
2023/10/21 15:47:18;;;;;;;11.60;8.63;;;;;;;11.66;100.00;99844.78;6009465;23;20026;-79
2023/10/21 15:49:44;;;;;;;11.02;7.90;;;;;;;11.60;100.00;99845.97;6034072;23;20023;-78
2023/10/21 15:52:10;;;;;;;10.50;7.07;;;;;;;11.55;100.00;99845.25;5985852;23;20079;-78
2023/10/21 15:54:35;;;;;;;7.07;6.20;;;;;;;11.48;100.00;99856.38;6009737;23;20023;-78
2023/10/21 15:57:02;;;;;;;;;;;;;;;11.40;100.00;99857.88;6033782;23;20018;-77
2023/10/21 15:59:27;;;;;;;9.40;6.47;;;;;;;11.34;100.00;99856.38;6010348;23;19909;-77
2023/10/21 16:01:53;;;;;;;13.82;10.13;;;;;;;11.34;100.00;99863.63;6010490;23;20176;-77
2023/10/21 16:04:18;;;;;;;13.23;9.02;;;;;;;11.30;100.00;99870.66;6032382;23;20046;-77
2023/10/21 16:06:44;;;;;;;12.20;9.07;;;;;;;11.23;100.00;99878.28;6009118;23;20019;-77
2023/10/21 16:09:10;;;;;;;14.88;10.48;;;;;;;11.16;100.00;99873.28;6008643;23;20011;-77
2023/10/21 16:11:36;;;;;;;17.02;10.35;;;;;;;11.11;100.00;99881.44;6009466;23;20453;-78
2023/10/21 16:14:02;;;;;;;14.52;10.18;;;;;;;11.06;100.00;99876.16;6009835;23;20051;-77
2023/10/21 16:16:29;;;;;;;15.68;10.35;;;;;;;11.01;100.00;99887.75;6008756;23;20047;-77
2023/10/21 16:18:54;;;;;;;14.13;9.13;;;;;;;10.98;100.00;99888.34;6009012;23;20471;-76
2023/10/21 16:21:21;;;;;;;14.05;9.95;;;;;;;10.98;100.00;99888.34;6008260;23;20015;-78
2023/10/21 16:23:47;;;;;;;13.73;8.90;;;;;;;10.96;100.00;99895.84;6009694;23;20548;-78
2023/10/21 16:26:12;;;;;;;15.38;10.38;;;;;;;10.93;100.00;99901.81;6032914;23;20007;-77
2023/10/21 16:28:38;;;;;;;13.85;9.18;;;;;;;10.89;100.00;99895.44;6058595;23;20022;-76
2023/10/21 16:31:08;;;;;;;16.58;10.80;;;;;;;10.85;100.00;99905.16;6031768;23;20021;-77
2023/10/21 16:33:33;;;;;;;16.77;9.77;;;;;;;10.80;100.00;99918.63;6031742;23;20021;-78
2023/10/21 16:36:00;;;;;;;14.82;10.10;;;;;;;10.83;100.00;99920.69;6032231;23;20086;-79
2023/10/21 16:38:26;;;;;;;14.00;10.05;;;;;;;10.83;100.00;99932.22;5985744;23;20358;-77
2023/10/21 16:40:52;;;;;;;14.02;9.18;;;;;;;10.81;100.00;99936.28;6010486;23;20597;-77
2023/10/21 16:43:19;;;;;;;15.57;9.63;;;;;;;10.81;100.00;99944.31;6010669;23;20453;-77
2023/10/21 16:45:48;;;;;;;14.05;10.23;;;;;;;10.80;100.00;99942.72;6010800;23;20034;-79
2023/10/21 16:48:14;;;;;;;;;;;;;;;10.75;100.00;99948.16;5987325;23;20029;-77
2023/10/21 16:50:39;;;;;;;13.52;8.48;;;;;;;10.68;100.00;99958.44;6010138;23;20000;-78
2023/10/21 16:53:05;;;;;;;12.75;8.60;;;;;;;10.64;100.00;99955.53;6034028;23;20011;-77
2023/10/21 16:55:30;;;;;;;13.15;8.38;;;;;;;10.58;100.00;99956.69;6009328;23;20129;-77
2023/10/21 16:57:56;;;;;;;10.82;8.10;;;;;;;10.52;100.00;99960.53;6011198;23;20094;-78
2023/10/21 17:00:22;;;;;;;10.15;8.30;;;;;;;10.48;100.00;99965.63;6010052;23;20023;-79
2023/10/21 17:02:48;;;;;;;9.88;7.65;;;;;;;10.44;100.00;99961.97;6011336;23;20093;-78
2023/10/21 17:05:14;;;;;;;;;;;;;;;10.41;100.00;99959.84;6034762;23;20025;-78
2023/10/21 17:07:43;;;;;;;14.73;9.02;;;;;;;10.37;100.00;99972.22;6010707;23;19977;-80
2023/10/21 17:10:32;;;;;;;12.40;8.65;;;;;;;10.34;100.00;99976.25;5988929;23;20015;-79
2023/10/21 17:12:58;;;;;;;11.77;8.95;;;;;;;10.30;100.00;99977.13;6004172;23;20015;-79
2023/10/21 17:15:28;;;;;;;12.43;9.38;;;;;;;10.29;100.00;99978.19;5986399;23;20694;-78
2023/10/21 17:17:55;;;;;;;10.73;8.60;;;;;;;10.27;100.00;99988.38;6010985;23;20018;-77
2023/10/21 17:20:26;;;;;;;12.38;9.45;;;;;;;10.26;100.00;99971.53;6011301;23;20023;-77
2023/10/21 17:22:53;;;;;;;10.88;7.85;;;;;;;10.23;100.00;99979.31;5987494;23;20401;-78
2023/10/21 17:25:23;;;;;;;11.20;8.77;;;;;;;10.21;100.00;99970.75;6058653;23;20037;-78
2023/10/21 17:27:49;;;;;;;12.40;8.60;;;;;;;10.18;100.00;99977.50;5987756;23;20074;-79
2023/10/21 17:35:03;;;;;;;8.30;6.75;;;;;;;10.03;100.00;99986.50;6061640;23;20405;-82
2023/10/21 17:37:49;;;;;;;8.25;6.65;;;;;;;9.97;100.00;99976.13;6017001;23;20027;-80
2023/10/21 17:40:15;;;;;;;13.48;9.30;;;;;;;10.05;100.00;99984.31;5986163;23;20777;-82
2023/10/21 17:42:41;;;;;;;12.38;7.88;;;;;;;10.03;100.00;99999.88;6033023;23;20468;-80
2023/10/21 17:45:09;;;;;;;11.25;8.23;;;;;;;9.98;100.00;99999.91;5986685;23;20029;-80
2023/10/21 17:47:36;;;;;;;11.02;8.30;;;;;;;9.94;100.00;99993.53;5988628;23;20066;-82
2023/10/21 20:40:09;;;;;;;2.83;2.15;;;;;;;9.35;100.00;100104.19;6080054;23;20025;-74
2023/10/21 20:42:36;;;;;;;3.17;2.28;;;;;;;9.37;100.00;100117.25;6112059;23;20038;-74
2023/10/21 20:45:03;;;;;;;2.90;1.95;;;;;;;9.31;100.00;100116.47;6064855;23;20104;-74
2023/10/21 20:47:28;;;;;;;2.05;1.48;;;;;;;9.32;100.00;100114.59;6065958;23;20037;-74
2023/10/21 20:49:54;;;;;;;2.75;1.80;;;;;;;9.31;100.00;100111.13;6114313;23;20424;-74
2023/10/21 20:52:21;;;;;;;3.80;1.73;;;;;;;9.29;100.00;100102.59;6089105;23;20076;-74
2023/10/21 20:54:47;;;;;;;2.92;2.28;;;;;;;9.29;100.00;100105.28;6064542;23;20025;-74
2023/10/21 20:57:13;;;;;;;3.08;1.50;;;;;;;9.28;100.00;100115.16;6088898;23;20021;-74
2023/10/21 20:59:39;;;;;;;3.55;1.80;;;;;;;9.26;100.00;100119.16;6114705;23;20018;-76
2023/10/21 21:02:06;;;;;;;2.42;1.50;;;;;;;9.24;100.00;100113.31;6088984;23;20009;-74
2023/10/21 21:04:32;;;;;;;2.63;1.60;;;;;;;9.20;100.00;100110.38;6114898;23;20017;-74
2023/10/21 21:06:57;;;;;;;4.28;1.90;;;;;;;9.17;100.00;100102.94;6064651;23;20025;-73
2023/10/21 21:09:23;;;;;;;3.92;1.70;;;;;;;9.15;100.00;100109.63;6089254;23;20326;-75
2023/10/21 21:11:51;;;;;;;3.95;1.98;;;;;;;9.09;100.00;100111.53;6088207;23;20104;-75
2023/10/21 21:14:21;;;;;;;2.53;1.70;;;;;;;9.04;100.00;100114.22;6088863;23;20452;-75
2023/10/21 21:16:46;;;;;;;3.20;2.05;;;;;;;8.97;100.00;100119.84;6064095;23;20729;-73
2023/10/21 21:19:12;;;;;;;3.38;1.90;;;;;;;8.94;100.00;100114.25;6039845;23;20025;-74
2023/10/21 21:21:38;;;;;;;3.75;1.83;;;;;;;8.88;100.00;100116.16;6113811;23;20097;-74
2023/10/21 21:24:05;;;;;;;7.25;1.70;;;;;;;8.84;100.00;100104.41;6064940;23;20022;-73
2023/10/21 21:26:34;;;;;;;2.80;1.67;;;;;;;8.81;100.00;100102.31;6089824;23;20014;-75
2023/10/21 21:29:00;;;;;;;2.53;1.92;;;;;;;8.78;100.00;100104.72;6087454;23;20528;-75
2023/10/21 21:31:29;;;;;;;2.90;1.50;;;;;;;8.73;100.00;100095.63;6064668;23;20042;-74
2023/10/21 21:33:55;;;;;;;4.47;2.63;;;;;;;8.67;100.00;100095.91;6088603;23;20045;-75
2023/10/21 21:36:21;;;;;;;;;;;;;;;8.63;100.00;100101.03;6088464;23;20022;-74
2023/10/21 21:38:47;;;;;;;3.67;2.33;;;;;;;8.61;100.00;100110.38;6088115;23;19925;-76
2023/10/21 21:41:15;;;;;;;4.85;2.38;;;;;;;8.58;100.00;100111.72;6114741;23;20023;-75
2023/10/21 21:43:44;;;;;;;2.65;1.90;;;;;;;8.53;100.00;100108.25;6144653;23;20020;-75
2023/10/21 21:46:19;;;;;;;4.00;1.83;;;;;;;8.51;100.00;100115.72;6117242;23;20084;-74
2023/10/21 21:48:45;;;;;;;4.70;2.22;;;;;;;8.48;100.00;100117.09;6093427;23;20017;-76
2023/10/21 21:51:12;;;;;;;3.17;1.85;;;;;;;8.45;100.00;100112.28;6117948;23;20017;-75
2023/10/21 21:53:39;;;;;;;4.00;2.28;;;;;;;8.41;100.00;100122.69;6094060;23;20021;-76
2023/10/21 21:56:06;;;;;;;2.90;1.90;;;;;;;8.37;100.00;100124.28;6117513;23;20122;-76
2023/10/21 21:58:34;;;;;;;4.90;2.00;;;;;;;8.32;100.00;100129.59;6070920;23;20017;-76
2023/10/21 22:01:05;;;;;;;4.35;1.88;;;;;;;8.30;100.00;100123.75;6118368;23;20017;-75
2023/10/21 22:03:34;;;;;;;5.30;2.35;;;;;;;8.33;100.00;100131.22;6070024;23;20049;-77
2023/10/21 22:06:00;;;;;;;4.38;2.53;;;;;;;8.30;100.00;100126.41;6144716;23;20521;-77
2023/10/21 22:08:26;;;;;;;4.93;2.22;;;;;;;8.32;100.00;100140.28;6145544;23;20063;-78
2023/10/21 22:10:53;;;;;;;4.28;2.15;;;;;;;8.32;100.00;100140.28;6093474;23;20028;-78
2023/10/21 22:13:19;;;;;;;3.97;2.47;;;;;;;8.32;100.00;100134.94;6092206;23;20017;-73
2023/10/21 22:15:45;;;;;;;3.75;2.22;;;;;;;8.34;100.00;100140.81;6142551;23;20025;-73
2023/10/21 22:18:12;;;;;;;5.65;2.20;;;;;;;8.33;100.00;100133.91;6144215;23;20067;-72
2023/10/21 22:20:41;;;;;;;4.15;2.08;;;;;;;8.32;100.00;100129.59;6144316;23;20022;-73
2023/10/21 22:23:07;;;;;;;2.88;1.70;;;;;;;8.32;100.00;100129.59;6118042;23;20013;-71
2023/10/21 22:25:38;;;;;;;4.05;1.75;;;;;;;8.31;100.00;100124.53;6117128;23;20453;-73
2023/10/21 22:28:12;;;;;;;4.13;1.92;;;;;;;8.29;100.00;100132.81;6117226;23;20013;-73
2023/10/21 22:30:39;;;;;;;2.90;1.70;;;;;;;8.27;100.00;100132.31;6070506;23;20693;-73
2023/10/21 22:33:05;;;;;;;2.17;1.80;;;;;;;8.21;100.00;100125.38;6117195;23;20023;-73
2023/10/21 22:35:30;;;;;;;3.17;1.65;;;;;;;8.19;100.00;100143.50;6115862;23;20128;-74
2023/10/21 22:37:56;;;;;;;3.78;2.20;;;;;;;8.13;100.00;100136.59;6116212;23;20017;-74
2023/10/21 22:40:23;;;;;;;5.25;1.80;;;;;;;8.08;100.00;100140.03;6054135;23;20018;-74
2023/10/21 22:42:48;;;;;;;;;;;;;;;8.06;100.00;100144.03;6089238;23;20057;-73
2023/10/21 22:45:16;;;;;;;2.88;1.80;;;;;;;8.06;100.00;100146.69;6087150;23;19913;-73
2023/10/21 22:47:43;;;;;;;2.22;1.70;;;;;;;8.05;100.00;100150.44;6114663;23;20018;-76
2023/10/21 22:50:09;;;;;;;3.67;1.95;;;;;;;8.05;100.00;100156.56;6087335;23;20018;-74
2023/10/21 22:52:35;;;;;;;;;;;;;;;8.07;100.00;100158.97;6114786;23;20498;-74
2023/10/21 22:55:02;;;;;;;5.43;2.47;;;;;;;8.10;100.00;100161.09;6040849;23;19912;-73
2023/10/21 22:57:28;;;;;;;4.75;2.70;;;;;;;8.13;100.00;100169.38;6064263;23;20014;-73
2023/10/21 22:59:54;;;;;;;4.35;3.28;;;;;;;8.14;100.00;100167.53;6063519;23;20014;-73
2023/10/21 23:02:22;;;;;;;5.80;2.70;;;;;;;8.15;100.00;100172.56;6063406;23;20476;-74
2023/10/21 23:04:53;;;;;;;5.70;3.20;;;;;;;8.15;100.00;100169.13;6063865;23;20020;-73
2023/10/21 23:07:19;;;;;;;6.18;2.30;;;;;;;8.13;100.00;100168.59;6063571;23;20006;-77
2023/10/21 23:09:49;;;;;;;6.80;2.70;;;;;;;8.13;100.00;100163.25;6116345;23;20044;-77
2023/10/21 23:12:16;;;;;;;5.03;2.65;;;;;;;8.12;100.00;100162.44;6089616;23;20119;-78
2023/10/21 23:14:43;;;;;;;5.65;3.10;;;;;;;8.14;100.00;100159.50;6042608;23;20118;-77